Floyd, Iowa
Current Conditions -  °F | °C
As of 11:55 PM on Thursday 27 Nov 2014 (Local Time) from KCCY Reporting Station
Light Snow Light Snow  
Wind Chill: -2°   Ceiling: 2000
Heat Index: 10°   Visibility: 6mi
Dew Point:   Wind: 8mph
Humidity: 67%   Direction: 160°SSE
Pressure: 30.28"   Gusts: NA
Location:  43.13°N, 92.74°W
Report Text: KCCY 280555Z AUTO 16007KT 6SM -SN SCT008 BKN020 OVC035 M12/M17 A3028 RMK AO2
Loading
Personal Weather Stations






























Interactive Weather Map New forecast layout! Learn more

10-Day Weather Forecast

Advertisements
Track Severe Weather on mobile